createdAt,value
2023-05-16T00:10:10.335Z,2.70
2023-05-16T00:30:10.056Z,2.90
2023-05-16T00:50:09.965Z,3.30
2023-05-16T01:10:09.525Z,4.50
2023-05-16T01:30:09.256Z,2.30
2023-05-16T01:50:08.975Z,3.60
2023-05-16T02:10:08.767Z,3.50
2023-05-16T02:30:08.459Z,3.40
2023-05-16T02:50:08.164Z,3.50
2023-05-16T03:10:07.879Z,5.50
2023-05-16T03:30:07.627Z,3.10
2023-05-16T03:50:07.350Z,3.80
2023-05-16T04:10:07.062Z,2.30
2023-05-16T04:30:06.791Z,1.70
2023-05-16T04:50:06.521Z,1.50
2023-05-16T05:10:06.213Z,2.90
2023-05-16T05:30:05.940Z,2.50
2023-05-16T05:50:05.682Z,2.40
2023-05-16T06:10:05.486Z,3.40
2023-05-16T06:30:05.100Z,4.40
2023-05-16T06:50:04.851Z,1.10
2023-05-16T07:10:04.543Z,2.60
2023-05-16T07:30:04.272Z,2.50
2023-05-16T07:50:03.998Z,1.50
2023-05-16T08:10:03.721Z,2.20
2023-05-16T08:30:03.430Z,3.10
2023-05-16T08:50:03.166Z,1.40
2023-05-16T09:10:02.891Z,1.30
2023-05-16T09:30:02.622Z,2.70
2023-05-16T09:50:02.328Z,2.40
2023-05-16T10:10:02.084Z,1.90
2023-05-16T10:30:01.776Z,2.10
2023-05-16T10:50:01.509Z,0.30
2023-05-16T11:10:01.238Z,0.30
2023-05-16T11:30:03.242Z,1.20
2023-05-16T11:50:00.687Z,0.70
2023-05-16T12:10:00.426Z,2.90
2023-05-16T12:30:00.143Z,1.20
2023-05-16T12:49:59.862Z,0.80
2023-05-16T13:09:59.632Z,2.10
2023-05-16T13:29:59.322Z,1.60
2023-05-16T13:49:59.061Z,2.20
2023-05-16T14:09:58.776Z,3.70
2023-05-16T14:29:58.515Z,0.80
2023-05-16T14:49:58.228Z,3.10
2023-05-16T15:09:57.948Z,2.80
2023-05-16T15:29:57.675Z,1.10
2023-05-16T15:49:57.425Z,3.60
2023-05-16T16:09:57.134Z,2.10
2023-05-16T16:29:56.926Z,1.50
2023-05-16T16:49:56.634Z,3.90
2023-05-16T17:09:56.293Z,2.00
2023-05-16T17:29:56.029Z,3.40
2023-05-16T17:49:55.897Z,4.10
2023-05-16T18:09:55.547Z,5.40
2023-05-16T18:29:55.189Z,4.30
2023-05-16T18:49:54.920Z,4.20
2023-05-16T19:09:54.644Z,4.10
2023-05-16T19:29:54.344Z,4.20
2023-05-16T19:49:54.051Z,3.30
2023-05-16T20:09:53.819Z,3.00
2023-05-16T20:29:53.551Z,4.00
2023-05-16T20:49:53.286Z,6.30
2023-05-16T21:09:53.002Z,5.30
2023-05-16T21:29:52.818Z,6.50
2023-05-16T21:49:52.456Z,4.90
2023-05-16T22:09:52.183Z,6.20
2023-05-16T22:29:51.915Z,5.80
2023-05-16T22:49:51.636Z,4.20
2023-05-16T23:09:51.386Z,4.10
2023-05-16T23:29:51.093Z,7.60
2023-05-16T23:49:50.865Z,5.70
